sensor_id;sensor_type;location;lat;lon;timestamp;pressure;altitude;pressure_sealevel;temperature;humidity
81909;BME280;71372;43.514;1.512;2024-03-22T00:02:15;100730.72;;;13.67;75.37
81909;BME280;71372;43.514;1.512;2024-03-22T00:04:41;100742.44;;;13.64;75.38
81909;BME280;71372;43.514;1.512;2024-03-22T00:07:07;100737.22;;;13.61;75.29
81909;BME280;71372;43.514;1.512;2024-03-22T00:09:32;100732.88;;;13.59;75.24
81909;BME280;71372;43.514;1.512;2024-03-22T00:11:59;100732.09;;;13.57;75.20
81909;BME280;71372;43.514;1.512;2024-03-22T00:14:25;100727.78;;;13.54;75.34
81909;BME280;71372;43.514;1.512;2024-03-22T00:16:51;100732.34;;;13.52;75.58
81909;BME280;71372;43.514;1.512;2024-03-22T00:19:17;100734.22;;;13.50;75.40
81909;BME280;71372;43.514;1.512;2024-03-22T00:21:43;100731.78;;;13.45;75.32
81909;BME280;71372;43.514;1.512;2024-03-22T00:24:09;100730.91;;;13.45;75.42
81909;BME280;71372;43.514;1.512;2024-03-22T00:26:34;100731.94;;;13.42;75.05
81909;BME280;71372;43.514;1.512;2024-03-22T00:29:00;100730.19;;;13.41;75.51
81909;BME280;71372;43.514;1.512;2024-03-22T00:31:26;100724.13;;;13.38;75.22
81909;BME280;71372;43.514;1.512;2024-03-22T00:33:52;100729.53;;;13.36;75.57
81909;BME280;71372;43.514;1.512;2024-03-22T00:36:18;100726.16;;;13.33;75.31
81909;BME280;71372;43.514;1.512;2024-03-22T00:38:45;100723.56;;;13.31;75.47
81909;BME280;71372;43.514;1.512;2024-03-22T00:41:11;100735.19;;;13.30;75.83
81909;BME280;71372;43.514;1.512;2024-03-22T00:43:37;100735.28;;;13.29;75.52
81909;BME280;71372;43.514;1.512;2024-03-22T00:46:03;100736.31;;;13.26;75.33
81909;BME280;71372;43.514;1.512;2024-03-22T00:48:29;100724.72;;;13.26;75.61
81909;BME280;71372;43.514;1.512;2024-03-22T00:50:55;100724.78;;;13.24;75.78
81909;BME280;71372;43.514;1.512;2024-03-22T00:53:21;100720.47;;;13.22;75.57
81909;BME280;71372;43.514;1.512;2024-03-22T00:55:47;100722.25;;;13.21;75.88
81909;BME280;71372;43.514;1.512;2024-03-22T00:58:19;100725.03;;;13.20;75.49
81909;BME280;71372;43.514;1.512;2024-03-22T01:00:46;100717.03;;;13.18;75.89
81909;BME280;71372;43.514;1.512;2024-03-22T01:03:12;100714.53;;;13.15;75.87
81909;BME280;71372;43.514;1.512;2024-03-22T01:05:38;100712.84;;;13.12;75.83
81909;BME280;71372;43.514;1.512;2024-03-22T01:08:05;100716.63;;;13.08;75.75
81909;BME280;71372;43.514;1.512;2024-03-22T01:10:33;100711.41;;;13.05;75.71
81909;BME280;71372;43.514;1.512;2024-03-22T01:12:59;100713.31;;;13.03;76.02
81909;BME280;71372;43.514;1.512;2024-03-22T01:15:26;100719.63;;;13.01;75.97
81909;BME280;71372;43.514;1.512;2024-03-22T01:17:52;100713.50;;;12.99;76.04
81909;BME280;71372;43.514;1.512;2024-03-22T01:20:18;100707.44;;;12.95;75.88
81909;BME280;71372;43.514;1.512;2024-03-22T01:22:44;100710.28;;;12.92;76.18
81909;BME280;71372;43.514;1.512;2024-03-22T01:25:10;100713.88;;;12.91;75.95
81909;BME280;71372;43.514;1.512;2024-03-22T01:27:36;100706.94;;;12.87;76.02
81909;BME280;71372;43.514;1.512;2024-03-22T01:30:02;100705.19;;;12.86;76.29
81909;BME280;71372;43.514;1.512;2024-03-22T01:32:28;100699.16;;;12.82;76.40
81909;BME280;71372;43.514;1.512;2024-03-22T01:34:54;100691.22;;;12.81;76.33
81909;BME280;71372;43.514;1.512;2024-03-22T01:37:20;100690.41;;;12.79;76.04
81909;BME280;71372;43.514;1.512;2024-03-22T01:39:46;100689.59;;;12.77;76.37
81909;BME280;71372;43.514;1.512;2024-03-22T01:42:12;100694.06;;;12.76;76.05
81909;BME280;71372;43.514;1.512;2024-03-22T01:44:38;100683.47;;;12.75;76.38
81909;BME280;71372;43.514;1.512;2024-03-22T01:47:04;100688.03;;;12.73;76.46
81909;BME280;71372;43.514;1.512;2024-03-22T01:49:30;100690.78;;;12.71;76.11
81909;BME280;71372;43.514;1.512;2024-03-22T01:51:56;100689.03;;;12.70;76.45
81909;BME280;71372;43.514;1.512;2024-03-22T01:54:22;100682.94;;;12.67;76.39
81909;BME280;71372;43.514;1.512;2024-03-22T01:56:48;100683.88;;;12.66;76.52
81909;BME280;71372;43.514;1.512;2024-03-22T01:59:15;100686.72;;;12.63;76.26
81909;BME280;71372;43.514;1.512;2024-03-22T02:01:41;100680.59;;;12.61;76.55
81909;BME280;71372;43.514;1.512;2024-03-22T02:04:07;100671.84;;;12.57;76.50
81909;BME280;71372;43.514;1.512;2024-03-22T02:06:33;100670.25;;;12.53;76.25
81909;BME280;71372;43.514;1.512;2024-03-22T02:09:00;100680.13;;;12.51;76.09
81909;BME280;71372;43.514;1.512;2024-03-22T02:11:26;100670.47;;;12.48;76.56
81909;BME280;71372;43.514;1.512;2024-03-22T02:13:52;100667.88;;;12.47;76.44
81909;BME280;71372;43.514;1.512;2024-03-22T02:16:18;100667.06;;;12.45;76.35
81909;BME280;71372;43.514;1.512;2024-03-22T02:18:44;100658.31;;;12.41;76.67
81909;BME280;71372;43.514;1.512;2024-03-22T02:21:10;100657.53;;;12.39;76.49
81909;BME280;71372;43.514;1.512;2024-03-22T02:23:38;100651.41;;;12.37;76.62
81909;BME280;71372;43.514;1.512;2024-03-22T02:26:04;100644.75;;;12.27;77.26
81909;BME280;71372;43.514;1.512;2024-03-22T02:28:31;100648.13;;;12.30;76.88
81909;BME280;71372;43.514;1.512;2024-03-22T02:30:58;100645.53;;;12.29;76.59
81909;BME280;71372;43.514;1.512;2024-03-22T02:33:24;100643.81;;;12.28;76.66
81909;BME280;71372;43.514;1.512;2024-03-22T02:35:51;100635.00;;;12.26;76.58
81909;BME280;71372;43.514;1.512;2024-03-22T02:38:17;100618.28;;;12.22;76.87
81909;BME280;71372;43.514;1.512;2024-03-22T02:40:45;100621.88;;;12.21;76.68
81909;BME280;71372;43.514;1.512;2024-03-22T02:43:11;100626.47;;;12.18;76.98
81909;BME280;71372;43.514;1.512;2024-03-22T02:45:38;100609.66;;;12.16;76.77
81909;BME280;71372;43.514;1.512;2024-03-22T02:48:04;100608.88;;;12.14;76.83
81909;BME280;71372;43.514;1.512;2024-03-22T02:50:34;100604.53;;;12.11;76.99
81909;BME280;71372;43.514;1.512;2024-03-22T02:53:00;100609.16;;;12.08;77.13
81909;BME280;71372;43.514;1.512;2024-03-22T02:55:26;100598.59;;;12.05;77.02
81909;BME280;71372;43.514;1.512;2024-03-22T02:57:52;100604.09;;;12.02;77.17
81909;BME280;71372;43.514;1.512;2024-03-22T03:00:18;100595.28;;;11.99;77.21
81909;BME280;71372;43.514;1.512;2024-03-22T03:02:48;100595.44;;;11.96;77.46
81909;BME280;71372;43.514;1.512;2024-03-22T03:05:13;100590.22;;;11.93;77.44
81909;BME280;71372;43.514;1.512;2024-03-22T03:07:40;100587.69;;;11.90;77.22
81909;BME280;71372;43.514;1.512;2024-03-22T03:10:06;100589.56;;;11.88;77.34
81909;BME280;71372;43.514;1.512;2024-03-22T03:12:32;100574.66;;;11.84;77.57
81909;BME280;71372;43.514;1.512;2024-03-22T03:14:59;100576.50;;;11.82;77.45
81909;BME280;71372;43.514;1.512;2024-03-22T03:17:25;100579.31;;;11.79;77.49
81909;BME280;71372;43.514;1.512;2024-03-22T03:19:51;100568.75;;;11.76;77.67
81909;BME280;71372;43.514;1.512;2024-03-22T03:22:17;100575.03;;;11.75;77.71
81909;BME280;71372;43.514;1.512;2024-03-22T03:24:43;100568.91;;;11.73;77.78
81909;BME280;71372;43.514;1.512;2024-03-22T03:27:09;100575.28;;;11.69;78.00
81909;BME280;71372;43.514;1.512;2024-03-22T03:29:35;100573.69;;;11.65;77.74
81909;BME280;71372;43.514;1.512;2024-03-22T03:32:01;100578.25;;;11.63;77.70
81909;BME280;71372;43.514;1.512;2024-03-22T03:34:27;100574.81;;;11.59;77.86
81909;BME280;71372;43.514;1.512;2024-03-22T03:36:53;100572.22;;;11.58;77.86
81909;BME280;71372;43.514;1.512;2024-03-22T03:39:19;100571.44;;;11.56;77.82
81909;BME280;71372;43.514;1.512;2024-03-22T03:41:45;100572.38;;;11.55;77.95
81909;BME280;71372;43.514;1.512;2024-03-22T03:44:10;100572.44;;;11.53;77.84
81909;BME280;71372;43.514;1.512;2024-03-22T03:46:36;100575.16;;;11.52;78.14
81909;BME280;71372;43.514;1.512;2024-03-22T03:49:02;100572.66;;;11.49;78.04
81909;BME280;71372;43.514;1.512;2024-03-22T03:51:28;100569.16;;;11.47;78.02
81909;BME280;71372;43.514;1.512;2024-03-22T03:53:54;100573.69;;;11.45;78.09
81909;BME280;71372;43.514;1.512;2024-03-22T03:56:20;100573.75;;;11.43;78.14
81909;BME280;71372;43.514;1.512;2024-03-22T03:58:46;100571.16;;;11.41;78.01
81909;BME280;71372;43.514;1.512;2024-03-22T04:01:12;100578.38;;;11.39;77.97
81909;BME280;71372;43.514;1.512;2024-03-22T04:03:38;100583.69;;;11.39;78.08
81909;BME280;71372;43.514;1.512;2024-03-22T04:06:04;100582.91;;;11.37;78.05
81909;BME280;71372;43.514;1.512;2024-03-22T04:08:31;100586.47;;;11.36;78.39
81909;BME280;71372;43.514;1.512;2024-03-22T04:10:57;100592.81;;;11.34;78.30
81909;BME280;71372;43.514;1.512;2024-03-22T04:13:24;100585.75;;;11.33;78.25
81909;BME280;71372;43.514;1.512;2024-03-22T04:15:51;100585.81;;;11.31;78.31
81909;BME280;71372;43.514;1.512;2024-03-22T04:18:16;100589.41;;;11.30;78.04
81909;BME280;71372;43.514;1.512;2024-03-22T04:20:42;100589.56;;;11.27;78.14
81909;BME280;71372;43.514;1.512;2024-03-22T04:23:11;100583.44;;;11.25;78.24
81909;BME280;71372;43.514;1.512;2024-03-22T04:25:37;100593.25;;;11.23;78.28
81909;BME280;71372;43.514;1.512;2024-03-22T04:28:03;100588.88;;;11.22;78.13
81909;BME280;71372;43.514;1.512;2024-03-22T04:30:29;100587.22;;;11.20;78.29
81909;BME280;71372;43.514;1.512;2024-03-22T04:32:55;100599.66;;;11.19;78.34
81909;BME280;71372;43.514;1.512;2024-03-22T04:35:21;100597.06;;;11.18;78.29
81909;BME280;71372;43.514;1.512;2024-03-22T04:37:47;100596.28;;;11.16;77.65
81909;BME280;71372;43.514;1.512;2024-03-22T04:40:13;100595.50;;;11.12;78.33
81909;BME280;71372;43.514;1.512;2024-03-22T04:42:39;100597.38;;;11.10;78.27
81909;BME280;71372;43.514;1.512;2024-03-22T04:45:05;100592.19;;;11.07;78.44
81909;BME280;71372;43.514;1.512;2024-03-22T04:47:31;100589.59;;;11.05;78.50
81909;BME280;71372;43.514;1.512;2024-03-22T04:49:57;100600.31;;;11.04;78.42
81909;BME280;71372;43.514;1.512;2024-03-22T04:52:23;100591.38;;;11.05;78.44
81909;BME280;71372;43.514;1.512;2024-03-22T04:54:48;100594.91;;;11.05;78.45
81909;BME280;71372;43.514;1.512;2024-03-22T04:57:15;100592.31;;;11.04;78.42
81909;BME280;71372;43.514;1.512;2024-03-22T04:59:41;100583.53;;;11.02;78.48
81909;BME280;71372;43.514;1.512;2024-03-22T05:02:07;100588.91;;;11.00;78.77
81909;BME280;71372;43.514;1.512;2024-03-22T05:04:32;100578.38;;;10.97;78.46
81909;BME280;71372;43.514;1.512;2024-03-22T05:06:58;100581.03;;;10.97;78.59
81909;BME280;71372;43.514;1.512;2024-03-22T05:09:24;100583.75;;;10.96;78.70
81909;BME280;71372;43.514;1.512;2024-03-22T05:11:51;100581.16;;;10.94;78.59
81909;BME280;71372;43.514;1.512;2024-03-22T05:14:19;100576.78;;;10.93;78.47
81909;BME280;71372;43.514;1.512;2024-03-22T05:16:45;100580.31;;;10.94;78.67
81909;BME280;71372;43.514;1.512;2024-03-22T05:19:11;100569.72;;;10.92;78.72
81909;BME280;71372;43.514;1.512;2024-03-22T05:21:36;100564.47;;;10.91;78.68
81909;BME280;71372;43.514;1.512;2024-03-22T05:24:02;100568.06;;;10.90;78.68
81909;BME280;71372;43.514;1.512;2024-03-22T05:26:28;100570.81;;;10.87;78.85
81909;BME280;71372;43.514;1.512;2024-03-22T05:28:57;100562.03;;;10.84;78.46
81909;BME280;71372;43.514;1.512;2024-03-22T05:31:23;100560.31;;;10.83;78.46
81909;BME280;71372;43.514;1.512;2024-03-22T05:33:49;100555.03;;;10.82;78.71
81909;BME280;71372;43.514;1.512;2024-03-22T05:36:15;100556.03;;;10.79;78.47
81909;BME280;71372;43.514;1.512;2024-03-22T05:38:41;100557.91;;;10.77;78.83
81909;BME280;71372;43.514;1.512;2024-03-22T05:41:07;100550.81;;;10.76;78.86
81909;BME280;71372;43.514;1.512;2024-03-22T05:43:34;100550.03;;;10.74;78.80
81909;BME280;71372;43.514;1.512;2024-03-22T05:45:59;100549.22;;;10.72;78.74
81909;BME280;71372;43.514;1.512;2024-03-22T05:48:25;100547.50;;;10.71;79.01
81909;BME280;71372;43.514;1.512;2024-03-22T05:50:51;100540.44;;;10.70;78.52
81909;BME280;71372;43.514;1.512;2024-03-22T05:53:18;100541.44;;;10.68;78.80
81909;BME280;71372;43.514;1.512;2024-03-22T05:55:44;100538.84;;;10.66;78.83
81909;BME280;71372;43.514;1.512;2024-03-22T05:58:10;100536.22;;;10.65;78.87
81909;BME280;71372;43.514;1.512;2024-03-22T06:00:36;100537.22;;;10.62;78.87
81909;BME280;71372;43.514;1.512;2024-03-22T06:03:02;100536.34;;;10.62;78.84
81909;BME280;71372;43.514;1.512;2024-03-22T06:05:28;100541.72;;;10.60;78.94
81909;BME280;71372;43.514;1.512;2024-03-22T06:07:54;100539.94;;;10.61;79.16
81909;BME280;71372;43.514;1.512;2024-03-22T06:10:20;100545.25;;;10.61;78.88
81909;BME280;71372;43.514;1.512;2024-03-22T06:12:46;100538.06;;;10.63;78.81
81909;BME280;71372;43.514;1.512;2024-03-22T06:15:12;100538.00;;;10.64;79.16
81909;BME280;71372;43.514;1.512;2024-03-22T06:17:39;100536.09;;;10.68;79.37
81909;BME280;71372;43.514;1.512;2024-03-22T06:20:05;100533.25;;;10.72;79.23
81909;BME280;71372;43.514;1.512;2024-03-22T06:22:31;100538.44;;;10.75;79.31
81909;BME280;71372;43.514;1.512;2024-03-22T06:24:57;100534.72;;;10.79;79.08
81909;BME280;71372;43.514;1.512;2024-03-22T06:27:24;100532.72;;;10.84;79.11
81909;BME280;71372;43.514;1.512;2024-03-22T06:29:50;100533.44;;;10.90;79.11
81909;BME280;71372;43.514;1.512;2024-03-22T06:32:16;100540.28;;;10.95;78.96
81909;BME280;71372;43.514;1.512;2024-03-22T06:34:42;100541.81;;;11.01;79.07
81909;BME280;71372;43.514;1.512;2024-03-22T06:37:08;100555.75;;;11.07;79.18
81909;BME280;71372;43.514;1.512;2024-03-22T06:39:34;100550.19;;;11.13;79.09
81909;BME280;71372;43.514;1.512;2024-03-22T06:42:00;100551.63;;;11.21;78.82
81909;BME280;71372;43.514;1.512;2024-03-22T06:44:26;100554.13;;;11.25;79.14
81909;BME280;71372;43.514;1.512;2024-03-22T06:46:52;100559.16;;;11.31;78.68
81909;BME280;71372;43.514;1.512;2024-03-22T06:49:18;100561.50;;;11.39;78.91
81909;BME280;71372;43.514;1.512;2024-03-22T06:51:44;100568.22;;;11.48;79.00
81909;BME280;71372;43.514;1.512;2024-03-22T06:54:10;100566.16;;;11.54;79.07
81909;BME280;71372;43.514;1.512;2024-03-22T06:56:36;100559.63;;;11.61;79.16
81909;BME280;71372;43.514;1.512;2024-03-22T06:59:01;100565.47;;;11.69;78.93
81909;BME280;71372;43.514;1.512;2024-03-22T07:01:27;100560.63;;;11.79;79.03
81909;BME280;71372;43.514;1.512;2024-03-22T07:03:53;100569.03;;;11.90;78.69
81909;BME280;71372;43.514;1.512;2024-03-22T07:06:19;100569.41;;;12.02;78.97
81909;BME280;71372;43.514;1.512;2024-03-22T07:08:46;100561.78;;;12.13;78.89
81909;BME280;71372;43.514;1.512;2024-03-22T07:11:12;100558.53;;;12.25;78.98
81909;BME280;71372;43.514;1.512;2024-03-22T07:13:38;100553.53;;;12.36;78.48
81909;BME280;71372;43.514;1.512;2024-03-22T07:16:04;100557.34;;;12.49;78.54
81909;BME280;71372;43.514;1.512;2024-03-22T07:18:30;100547.88;;;12.61;78.56
81909;BME280;71372;43.514;1.512;2024-03-22T07:20:56;100550.91;;;12.72;78.70
81909;BME280;71372;43.514;1.512;2024-03-22T07:23:23;100550.22;;;12.86;78.75
81909;BME280;71372;43.514;1.512;2024-03-22T07:25:49;100554.94;;;12.98;78.56
81909;BME280;71372;43.514;1.512;2024-03-22T07:28:15;100555.19;;;13.11;78.21
81909;BME280;71372;43.514;1.512;2024-03-22T07:30:42;100553.66;;;13.24;78.46
81909;BME280;71372;43.514;1.512;2024-03-22T07:33:07;100551.31;;;13.35;78.61
81909;BME280;71372;43.514;1.512;2024-03-22T07:35:36;100558.59;;;13.49;78.22
81909;BME280;71372;43.514;1.512;2024-03-22T07:38:02;100559.06;;;13.57;78.00
81909;BME280;71372;43.514;1.512;2024-03-22T07:40:30;100556.69;;;13.68;78.15
81909;BME280;71372;43.514;1.512;2024-03-22T07:42:55;100564.09;;;13.81;78.17
81909;BME280;71372;43.514;1.512;2024-03-22T07:45:21;100558.16;;;13.91;77.85
81909;BME280;71372;43.514;1.512;2024-03-22T07:47:47;100558.44;;;14.02;77.63
81909;BME280;71372;43.514;1.512;2024-03-22T07:50:14;100562.19;;;14.16;77.97
81909;BME280;71372;43.514;1.512;2024-03-22T07:52:40;100562.53;;;14.25;77.86
81909;BME280;71372;43.514;1.512;2024-03-22T07:55:06;100566.16;;;14.40;77.66
81909;BME280;71372;43.514;1.512;2024-03-22T07:57:32;100557.38;;;14.54;77.45
81909;BME280;71372;43.514;1.512;2024-03-22T07:59:58;100563.09;;;14.63;77.61
81909;BME280;71372;43.514;1.512;2024-03-22T08:02:24;100562.59;;;14.73;77.15
81909;BME280;71372;43.514;1.512;2024-03-22T08:04:53;100568.28;;;14.82;77.23
81909;BME280;71372;43.514;1.512;2024-03-22T08:07:19;100570.25;;;14.95;77.12
81909;BME280;71372;43.514;1.512;2024-03-22T08:09:45;100576.72;;;15.06;76.98
81909;BME280;71372;43.514;1.512;2024-03-22T08:12:11;100568.81;;;15.19;76.58
81909;BME280;71372;43.514;1.512;2024-03-22T08:14:37;100565.59;;;15.28;76.68
81909;BME280;71372;43.514;1.512;2024-03-22T08:17:03;100570.22;;;15.40;76.08
81909;BME280;71372;43.514;1.512;2024-03-22T08:19:29;100563.25;;;15.52;76.40
81909;BME280;71372;43.514;1.512;2024-03-22T08:21:55;100563.56;;;15.62;76.02
81909;BME280;71372;43.514;1.512;2024-03-22T08:24:21;100557.94;;;15.66;76.27
81909;BME280;71372;43.514;1.512;2024-03-22T08:26:47;100565.25;;;15.78;75.89
81909;BME280;71372;43.514;1.512;2024-03-22T08:29:13;100564.50;;;15.91;75.97
81909;BME280;71372;43.514;1.512;2024-03-22T08:31:40;100562.00;;;16.02;75.79
81909;BME280;71372;43.514;1.512;2024-03-22T08:34:07;100559.50;;;16.13;75.58
81909;BME280;71372;43.514;1.512;2024-03-22T08:36:33;100553.44;;;16.24;75.37
81909;BME280;71372;43.514;1.512;2024-03-22T08:38:59;100561.88;;;16.32;75.37
81909;BME280;71372;43.514;1.512;2024-03-22T08:41:25;100559.66;;;16.38;75.19
81909;BME280;71372;43.514;1.512;2024-03-22T08:43:51;100562.81;;;16.45;74.82
81909;BME280;71372;43.514;1.512;2024-03-22T08:46:17;100566.84;;;16.52;75.00
81909;BME280;71372;43.514;1.512;2024-03-22T08:48:43;100566.25;;;16.61;74.93
81909;BME280;71372;43.514;1.512;2024-03-22T08:51:09;100554.81;;;16.72;74.85
81909;BME280;71372;43.514;1.512;2024-03-22T08:53:35;100559.50;;;16.83;74.60
81909;BME280;71372;43.514;1.512;2024-03-22T08:56:01;100554.34;;;16.92;74.54
81909;BME280;71372;43.514;1.512;2024-03-22T08:58:27;100562.13;;;16.97;74.33
81909;BME280;71372;43.514;1.512;2024-03-22T09:00:53;100563.44;;;17.04;74.27
81909;BME280;71372;43.514;1.512;2024-03-22T09:03:19;100555.81;;;17.11;73.96
81909;BME280;71372;43.514;1.512;2024-03-22T09:05:47;100558.88;;;17.19;73.91
81909;BME280;71372;43.514;1.512;2024-03-22T09:08:13;100555.53;;;17.28;73.89
81909;BME280;71372;43.514;1.512;2024-03-22T09:10:38;100558.28;;;17.41;73.66
81909;BME280;71372;43.514;1.512;2024-03-22T09:13:04;100559.34;;;17.51;73.60
81909;BME280;71372;43.514;1.512;2024-03-22T09:15:30;100548.69;;;17.62;73.24
81909;BME280;71372;43.514;1.512;2024-03-22T09:17:56;100549.81;;;17.72;73.04
81909;BME280;71372;43.514;1.512;2024-03-22T09:20:22;100551.75;;;17.83;72.76
81909;BME280;71372;43.514;1.512;2024-03-22T09:22:48;100547.69;;;17.90;72.45
81909;BME280;71372;43.514;1.512;2024-03-22T09:25:14;100545.28;;;17.98;72.34
81909;BME280;71372;43.514;1.512;2024-03-22T09:27:40;100545.50;;;18.08;72.28
81909;BME280;71372;43.514;1.512;2024-03-22T09:30:08;100543.13;;;18.16;71.99
81909;BME280;71372;43.514;1.512;2024-03-22T09:32:35;100539.03;;;18.23;71.91
81909;BME280;71372;43.514;1.512;2024-03-22T09:35:01;100543.72;;;18.32;71.82
81909;BME280;71372;43.514;1.512;2024-03-22T09:37:27;100539.38;;;18.42;71.34
81909;BME280;71372;43.514;1.512;2024-03-22T09:39:53;100536.88;;;18.52;71.50
81909;BME280;71372;43.514;1.512;2024-03-22T09:42:22;100535.22;;;18.62;71.27
81909;BME280;71372;43.514;1.512;2024-03-22T09:44:51;100531.66;;;18.75;71.21
81909;BME280;71372;43.514;1.512;2024-03-22T09:47:18;100532.69;;;18.85;70.69
81909;BME280;71372;43.514;1.512;2024-03-22T09:49:44;100531.91;;;18.95;70.46
81909;BME280;71372;43.514;1.512;2024-03-22T09:52:13;100530.00;;;19.09;70.04
81909;BME280;71372;43.514;1.512;2024-03-22T09:54:48;100518.47;;;19.18;69.92
81909;BME280;71372;43.514;1.512;2024-03-22T09:57:14;100526.09;;;19.24;69.48
81909;BME280;71372;43.514;1.512;2024-03-22T09:59:44;100526.16;;;19.35;69.33
81909;BME280;71372;43.514;1.512;2024-03-22T10:02:12;100526.41;;;19.43;69.36
81909;BME280;71372;43.514;1.512;2024-03-22T10:04:39;100524.09;;;19.50;69.15
81909;BME280;71372;43.514;1.512;2024-03-22T10:07:06;100529.16;;;19.54;68.35
81909;BME280;71372;43.514;1.512;2024-03-22T10:09:32;100524.75;;;19.65;68.92
81909;BME280;71372;43.514;1.512;2024-03-22T10:11:58;100523.78;;;19.77;68.76
81909;BME280;71372;43.514;1.512;2024-03-22T10:14:25;100522.22;;;19.85;68.38
81909;BME280;71372;43.514;1.512;2024-03-22T10:16:52;100519.50;;;19.85;68.10
81909;BME280;71372;43.514;1.512;2024-03-22T10:19:21;100521.22;;;19.86;68.15
81909;BME280;71372;43.514;1.512;2024-03-22T10:21:59;100508.44;;;19.89;67.69
81909;BME280;71372;43.514;1.512;2024-03-22T10:24:25;100516.69;;;19.98;67.96
81909;BME280;71372;43.514;1.512;2024-03-22T10:26:52;100511.06;;;20.01;67.69
81909;BME280;71372;43.514;1.512;2024-03-22T10:29:18;100513.50;;;20.15;67.57
81909;BME280;71372;43.514;1.512;2024-03-22T10:31:45;100504.88;;;20.22;67.13
81909;BME280;71372;43.514;1.512;2024-03-22T10:34:14;100501.91;;;20.36;67.48
81909;BME280;71372;43.514;1.512;2024-03-22T10:36:41;100498.13;;;20.50;67.18
81909;BME280;71372;43.514;1.512;2024-03-22T10:39:07;100501.53;;;20.63;66.94
81909;BME280;71372;43.514;1.512;2024-03-22T10:41:34;100502.09;;;20.78;66.52
81909;BME280;71372;43.514;1.512;2024-03-22T10:44:00;100496.63;;;20.89;66.19
81909;BME280;71372;43.514;1.512;2024-03-22T10:46:30;100501.75;;;21.03;65.88
81909;BME280;71372;43.514;1.512;2024-03-22T10:49:00;100492.00;;;21.12;65.45
81909;BME280;71372;43.514;1.512;2024-03-22T10:51:30;100490.34;;;21.20;65.24
81909;BME280;71372;43.514;1.512;2024-03-22T10:53:59;100480.44;;;21.30;65.24
81909;BME280;71372;43.514;1.512;2024-03-22T10:56:27;100473.13;;;21.42;64.62
81909;BME280;71372;43.514;1.512;2024-03-22T10:58:53;100472.47;;;21.50;64.27
81909;BME280;71372;43.514;1.512;2024-03-22T11:01:23;100478.78;;;21.60;64.31
81909;BME280;71372;43.514;1.512;2024-03-22T11:03:49;100471.09;;;21.65;64.13
81909;BME280;71372;43.514;1.512;2024-03-22T11:06:19;100460.75;;;21.70;64.16
81909;BME280;71372;43.514;1.512;2024-03-22T11:08:50;100459.47;;;21.74;63.49
81909;BME280;71372;43.514;1.512;2024-03-22T11:11:18;100461.97;;;21.66;63.40
81909;BME280;71372;43.514;1.512;2024-03-22T11:13:47;100463.41;;;21.60;63.64
81909;BME280;71372;43.514;1.512;2024-03-22T11:16:16;100467.97;;;21.60;63.15
81909;BME280;71372;43.514;1.512;2024-03-22T11:18:42;100458.84;;;21.61;63.41
81909;BME280;71372;43.514;1.512;2024-03-22T11:21:08;100454.13;;;21.63;62.95
81909;BME280;71372;43.514;1.512;2024-03-22T11:23:36;100441.56;;;21.62;63.10
81909;BME280;71372;43.514;1.512;2024-03-22T11:26:03;100438.88;;;21.62;62.94
81909;BME280;71372;43.514;1.512;2024-03-22T11:28:30;100434.50;;;21.71;62.90
81909;BME280;71372;43.514;1.512;2024-03-22T11:30:56;100434.94;;;21.76;62.86
81909;BME280;71372;43.514;1.512;2024-03-22T11:33:22;100438.25;;;21.79;62.98
81909;BME280;71372;43.514;1.512;2024-03-22T11:35:48;100428.84;;;21.83;62.51
81909;BME280;71372;43.514;1.512;2024-03-22T11:38:15;100425.31;;;21.93;62.50
81909;BME280;71372;43.514;1.512;2024-03-22T11:40:43;100422.19;;;21.97;62.05
81909;BME280;71372;43.514;1.512;2024-03-22T11:43:10;100416.47;;;22.00;62.15
81909;BME280;71372;43.514;1.512;2024-03-22T11:45:39;100413.38;;;22.05;61.15
81909;BME280;71372;43.514;1.512;2024-03-22T11:48:06;100412.09;;;22.09;60.43
81909;BME280;71372;43.514;1.512;2024-03-22T11:50:32;100414.38;;;22.13;59.99
81909;BME280;71372;43.514;1.512;2024-03-22T11:52:58;100412.13;;;22.18;60.19
81909;BME280;71372;43.514;1.512;2024-03-22T11:55:27;100406.28;;;22.23;59.90
81909;BME280;71372;43.514;1.512;2024-03-22T11:57:53;100404.72;;;22.30;59.72
81909;BME280;71372;43.514;1.512;2024-03-22T12:00:19;100392.59;;;22.34;59.86
81909;BME280;71372;43.514;1.512;2024-03-22T12:02:45;100397.88;;;22.45;59.77
81909;BME280;71372;43.514;1.512;2024-03-22T12:05:11;100391.06;;;22.51;59.40
81909;BME280;71372;43.514;1.512;2024-03-22T12:07:37;100391.19;;;22.59;59.58
81909;BME280;71372;43.514;1.512;2024-03-22T12:10:03;100387.75;;;22.67;59.40
81909;BME280;71372;43.514;1.512;2024-03-22T12:12:30;100383.59;;;22.72;58.98
81909;BME280;71372;43.514;1.512;2024-03-22T12:14:55;100375.19;;;22.75;58.55
81909;BME280;71372;43.514;1.512;2024-03-22T12:17:21;100371.88;;;22.82;58.85
81909;BME280;71372;43.514;1.512;2024-03-22T12:19:47;100368.78;;;22.86;58.39
81909;BME280;71372;43.514;1.512;2024-03-22T12:22:13;100365.78;;;22.89;58.30
81909;BME280;71372;43.514;1.512;2024-03-22T12:24:39;100358.78;;;22.87;58.26
81909;BME280;71372;43.514;1.512;2024-03-22T12:27:05;100355.31;;;22.94;57.47
81909;BME280;71372;43.514;1.512;2024-03-22T12:29:34;100358.47;;;22.99;57.47
81909;BME280;71372;43.514;1.512;2024-03-22T12:32:01;100349.72;;;23.05;57.09
81909;BME280;71372;43.514;1.512;2024-03-22T12:34:32;100347.28;;;23.12;56.22
81909;BME280;71372;43.514;1.512;2024-03-22T12:37:02;100339.69;;;23.16;56.50
81909;BME280;71372;43.514;1.512;2024-03-22T12:39:28;100332.09;;;23.19;56.18
81909;BME280;71372;43.514;1.512;2024-03-22T12:41:54;100332.66;;;23.23;55.83
81909;BME280;71372;43.514;1.512;2024-03-22T12:44:20;100326.63;;;23.29;55.99
81909;BME280;71372;43.514;1.512;2024-03-22T12:46:47;100321.47;;;23.36;56.26